Time,TemperatureF,DewpointF,PressureIn,WindDirection,WindDirectionDegrees,WindSpeedMPH,WindSpeedGustMPH,Humidity,HourlyPrecipIn,Conditions,Clouds,dailyrainin,SoftwareType,DateUTC
2013-03-25 00:12:00,38.3,24.4,29.52,NE,45,1.7,-999.0,57,-99.99,,,0.00,Acu-Link.com,2013-03-25 04:12:00,
2013-03-25 00:39:00,37.9,23.6,29.52,NE,45,2.7,-999.0,56,-99.99,,,0.00,Acu-Link.com,2013-03-25 04:39:00,
2013-03-25 03:16:00,37.2,23.8,29.46,North,0,2.7,-999.0,58,-99.99,,,0.00,Acu-Link.com,2013-03-25 07:16:00,
2013-03-25 03:42:00,37.2,23.8,29.46,NNE,22,1.1,-999.0,58,-99.99,,,0.00,Acu-Link.com,2013-03-25 07:42:00,
2013-03-25 08:16:00,32.7,30.1,29.47,ESE,112,2.7,-999.0,90,-99.99,,,0.00,Acu-Link.com,2013-03-25 12:16:00,
2013-03-25 09:14:00,32.7,30.4,29.46,ENE,67,2.2,-999.0,91,-99.99,,,0.00,Acu-Link.com,2013-03-25 13:14:00,
2013-03-25 09:34:00,32.9,30.6,29.46,ENE,67,2.7,-999.0,91,-99.99,,,0.00,Acu-Link.com,2013-03-25 13:34:00,
2013-03-25 10:17:00,33.6,31.0,29.46,WNW,292,2.7,-999.0,90,-99.99,,,0.00,Acu-Link.com,2013-03-25 14:17:00,
2013-03-25 10:32:00,34.2,31.3,29.45,NE,45,2.7,-999.0,89,-99.99,,,0.00,Acu-Link.com,2013-03-25 14:32:00,
2013-03-25 10:48:00,34.2,31.3,29.44,ESE,112,4.2,-999.0,89,-99.99,,,0.00,Acu-Link.com,2013-03-25 14:48:00,
2013-03-25 11:03:00,34.2,31.3,29.45,ESE,112,1.7,-999.0,89,-99.99,,,0.00,Acu-Link.com,2013-03-25 15:03:00,
2013-03-25 11:18:00,34.5,31.6,29.44,ENE,67,5.8,-999.0,89,-99.99,,,0.00,Acu-Link.com,2013-03-25 15:18:00,
2013-03-25 11:33:00,34.5,31.6,29.44,ENE,67,2.7,-999.0,89,-99.99,,,0.01,Acu-Link.com,2013-03-25 15:33:00,
2013-03-25 11:48:00,35.1,32.2,29.44,ENE,67,2.7,-999.0,89,-99.99,,,0.04,Acu-Link.com,2013-03-25 15:48:00,
2013-03-25 12:03:00,35.2,32.3,29.43,NE,45,2.2,-999.0,89,-99.99,,,0.06,Acu-Link.com,2013-03-25 16:03:00,
2013-03-25 12:18:00,35.6,32.4,29.44,ENE,67,1.7,-999.0,88,-99.99,,,0.07,Acu-Link.com,2013-03-25 16:18:00,
2013-03-25 12:33:00,35.6,32.1,29.44,NNE,22,2.2,-999.0,87,-99.99,,,0.09,Acu-Link.com,2013-03-25 16:33:00,
2013-03-25 12:48:00,36.1,32.6,29.44,ENE,67,3.2,-999.0,87,-99.99,,,0.11,Acu-Link.com,2013-03-25 16:48:00,
2013-03-25 14:06:00,36.7,32.9,29.44,NE,45,1.7,-999.0,86,-99.99,,,0.13,Acu-Link.com,2013-03-25 18:06:00,
2013-03-25 14:31:00,36.7,32.9,29.43,East,90,2.2,-999.0,86,-99.99,,,0.16,Acu-Link.com,2013-03-25 18:31:00,
2013-03-25 14:50:00,36.7,32.9,29.43,NNW,337,4.7,-999.0,86,-99.99,,,0.17,Acu-Link.com,2013-03-25 18:50:00,
2013-03-25 15:09:00,36.7,33.2,29.44,ENE,67,2.7,-999.0,87,-99.99,,,0.17,Acu-Link.com,2013-03-25 19:09:00,
2013-03-25 15:36:00,36.5,33.3,29.44,NNE,22,1.1,-999.0,88,-99.99,,,0.18,Acu-Link.com,2013-03-25 19:36:00,
2013-03-25 16:30:00,37.8,33.1,29.44,NE,45,1.7,-999.0,83,-99.99,,,0.18,Acu-Link.com,2013-03-25 20:30:00,
2013-03-25 16:45:00,37.8,33.1,29.44,WNW,292,0.0,-999.0,83,-99.99,,,0.19,Acu-Link.com,2013-03-25 20:45:00,
2013-03-25 17:00:00,37.8,33.1,29.44,West,270,1.1,-999.0,83,-99.99,,,0.19,Acu-Link.com,2013-03-25 21:00:00,
2013-03-25 17:16:00,37.0,32.6,29.45,West,270,0.0,-999.0,84,-99.99,,,0.19,Acu-Link.com,2013-03-25 21:16:00,
2013-03-25 17:54:00,37.0,32.6,29.47,West,270,1.7,-999.0,84,-99.99,,,0.20,Acu-Link.com,2013-03-25 21:54:00,
2013-03-25 18:57:00,34.9,32.3,29.49,West,270,0.0,-999.0,90,-99.99,,,0.21,Acu-Link.com,2013-03-25 22:57:00,
2013-03-25 19:14:00,34.5,32.1,29.50,SW,225,0.0,-999.0,91,-99.99,,,0.21,Acu-Link.com,2013-03-25 23:14:00,
2013-03-25 19:29:00,34.2,31.9,29.50,SW,225,0.0,-999.0,91,-99.99,,,0.22,Acu-Link.com,2013-03-25 23:29:00,
2013-03-25 19:44:00,33.6,31.3,29.52,WNW,292,0.0,-999.0,91,-99.99,,,0.23,Acu-Link.com,2013-03-25 23:44:00,